createdAt,value
2023-01-19T00:00:10.114Z,-6.7
2023-01-19T00:05:10.131Z,-6.5
2023-01-19T00:10:10.106Z,-5.8
2023-01-19T00:15:10.097Z,-5.6
2023-01-19T00:20:10.110Z,-5.6
2023-01-19T00:25:10.101Z,-5.7
2023-01-19T00:30:10.086Z,-5.6
2023-01-19T00:35:10.094Z,-5.6
2023-01-19T00:40:10.084Z,-5.6
2023-01-19T00:45:10.098Z,-6.1
2023-01-19T00:50:10.089Z,-8.2
2023-01-19T00:55:10.095Z,-8
2023-01-19T01:00:10.090Z,-7.3
2023-01-19T01:05:10.095Z,-6.9
2023-01-19T01:10:10.087Z,-6.9
2023-01-19T01:15:10.102Z,-5.9
2023-01-19T01:20:10.083Z,-6
2023-01-19T01:25:10.095Z,-5.7
2023-01-19T01:30:10.098Z,-5.6
2023-01-19T01:35:10.086Z,-5.6
2023-01-19T01:40:10.088Z,-6.4
2023-01-19T01:45:10.085Z,-7.7
2023-01-19T01:50:10.097Z,-8.7
2023-01-19T01:55:10.087Z,-6.4
2023-01-19T02:00:10.081Z,-6
2023-01-19T02:05:10.096Z,-5.4
2023-01-19T02:10:10.097Z,-5.1
2023-01-19T02:15:10.100Z,-5.1
2023-01-19T02:20:10.081Z,-5.2
2023-01-19T02:25:10.087Z,-5.2
2023-01-19T02:30:10.090Z,-5.3
2023-01-19T02:35:10.088Z,-5.2
2023-01-19T02:40:10.092Z,-5.2
2023-01-19T02:45:10.092Z,-5
2023-01-19T02:50:10.098Z,-5
2023-01-19T02:55:10.094Z,-5.1
2023-01-19T03:00:10.112Z,-5.1
2023-01-19T03:05:10.099Z,-5
2023-01-19T03:10:10.087Z,-4.9
2023-01-19T03:15:10.103Z,-4.9
2023-01-19T03:20:10.102Z,-5
2023-01-19T03:25:10.114Z,-4.8
2023-01-19T03:30:10.103Z,-4.8
2023-01-19T03:35:10.107Z,-4.6
2023-01-19T03:40:10.100Z,-4.6
2023-01-19T03:45:10.091Z,-4.8
2023-01-19T03:50:10.104Z,-4.8
2023-01-19T03:55:10.109Z,-4.5
2023-01-19T04:00:10.096Z,-4.3
2023-01-19T04:05:10.092Z,-4.4
2023-01-19T04:10:10.091Z,-4.4
2023-01-19T04:15:10.089Z,-4.6
2023-01-19T04:20:10.089Z,-4.5
2023-01-19T04:25:10.094Z,-4.6
2023-01-19T04:30:10.083Z,-4.7
2023-01-19T04:35:10.095Z,-4.7
2023-01-19T04:40:10.091Z,-4.7
2023-01-19T04:45:10.096Z,-4.7
2023-01-19T04:50:10.085Z,-4.7
2023-01-19T04:55:10.098Z,-5
2023-01-19T05:00:10.089Z,-5.1
2023-01-19T05:05:10.096Z,-5
2023-01-19T05:10:10.115Z,-5
2023-01-19T05:15:10.090Z,-4.9
2023-01-19T05:20:10.091Z,-4.9
2023-01-19T05:25:10.112Z,-4.6
2023-01-19T05:30:10.092Z,-4.6
2023-01-19T05:35:10.103Z,-4.7
2023-01-19T05:40:10.087Z,-4.8
2023-01-19T05:45:10.091Z,-5
2023-01-19T05:50:10.095Z,-5.2
2023-01-19T05:55:10.084Z,-5.2
2023-01-19T06:00:10.095Z,-5.4
2023-01-19T06:05:10.095Z,-6.2
2023-01-19T06:10:10.091Z,-6.2
2023-01-19T06:15:10.093Z,-5.6
2023-01-19T06:20:10.092Z,-5.6
2023-01-19T06:25:10.091Z,-5.6
2023-01-19T06:30:10.088Z,-5.5
2023-01-19T06:35:10.088Z,-6
2023-01-19T06:40:10.083Z,-6.3
2023-01-19T06:45:10.177Z,-6.4
2023-01-19T06:50:10.080Z,-6.5
2023-01-19T06:55:10.092Z,-6.9
2023-01-19T07:00:10.084Z,-7.1
2023-01-19T07:05:10.084Z,-7.7
2023-01-19T07:10:10.079Z,-7.8
2023-01-19T07:15:10.090Z,-7.3
2023-01-19T07:20:10.090Z,-6.3
2023-01-19T07:25:10.085Z,-4.8
2023-01-19T07:30:10.090Z,-4.3
2023-01-19T07:35:10.089Z,-4.1
2023-01-19T07:40:10.088Z,-3.8
2023-01-19T07:45:10.084Z,-3.4
2023-01-19T07:50:10.086Z,-3.1
2023-01-19T07:55:10.082Z,-3.1
2023-01-19T08:00:10.089Z,-3.2
2023-01-19T08:05:10.087Z,-3
2023-01-19T08:10:10.083Z,-2.9
2023-01-19T08:15:10.078Z,-2.7
2023-01-19T08:20:10.413Z,-2.7
2023-01-19T08:25:10.086Z,-2.8
2023-01-19T08:30:10.086Z,-2.9
2023-01-19T08:35:10.096Z,-3.8
2023-01-19T08:40:10.087Z,-4.7
2023-01-19T08:45:10.083Z,-5.3
2023-01-19T08:50:10.088Z,-5.8
2023-01-19T08:55:10.096Z,-6.3
2023-01-19T09:00:10.077Z,-6.4
2023-01-19T09:05:10.082Z,-5.9
2023-01-19T09:10:10.088Z,-5.2
2023-01-19T09:15:10.091Z,-4.7
2023-01-19T09:20:10.081Z,-4.2
2023-01-19T09:25:10.090Z,-3
2023-01-19T09:30:10.080Z,-3.9
2023-01-19T09:35:10.092Z,-4.2
2023-01-19T09:40:10.086Z,-3.8
2023-01-19T09:45:12.091Z,-2.8
2023-01-19T09:50:10.082Z,-1.8
2023-01-19T09:55:10.090Z,-1.7
2023-01-19T10:00:10.088Z,-1.5
2023-01-19T10:05:10.099Z,-1.5
2023-01-19T10:10:10.088Z,-1.5
2023-01-19T10:15:10.098Z,-1.4
2023-01-19T10:20:10.079Z,-1.3
2023-01-19T10:25:10.107Z,-1.3
2023-01-19T10:30:10.117Z,-1.2
2023-01-19T10:35:10.092Z,-1.2
2023-01-19T10:40:10.099Z,-1.1
2023-01-19T10:45:10.131Z,-1
2023-01-19T10:50:10.092Z,-0.9
2023-01-19T10:55:10.085Z,-0.7
2023-01-19T11:00:10.142Z,-0.5
2023-01-19T11:05:10.086Z,-0.4
2023-01-19T11:10:10.086Z,-0.3
2023-01-19T11:15:10.083Z,-0.1
2023-01-19T11:20:10.133Z,0.1
2023-01-19T11:25:10.132Z,0.1
2023-01-19T11:30:10.086Z,0.3
2023-01-19T11:35:10.098Z,0.3
2023-01-19T11:40:10.083Z,0.6
2023-01-19T11:45:10.083Z,0.7
2023-01-19T11:50:10.082Z,0.4
2023-01-19T11:55:10.083Z,0.3
2023-01-19T12:00:10.083Z,0.2
2023-01-19T12:05:10.096Z,0.2
2023-01-19T12:10:10.081Z,0.2
2023-01-19T12:15:10.105Z,0.2
2023-01-19T12:20:10.114Z,0.2
2023-01-19T12:25:10.094Z,0.2
2023-01-19T12:30:10.090Z,0.1
2023-01-19T12:35:10.080Z,0.2
2023-01-19T12:40:10.096Z,0.2
2023-01-19T12:45:10.089Z,0.2
2023-01-19T12:50:10.091Z,0.2
2023-01-19T12:55:10.089Z,0.2
2023-01-19T13:00:10.088Z,0.2
2023-01-19T13:05:10.088Z,0.2
2023-01-19T13:10:10.080Z,0.2
2023-01-19T13:15:10.101Z,0.2
2023-01-19T13:20:10.094Z,0.2
2023-01-19T13:25:10.326Z,0.2
2023-01-19T13:30:10.094Z,0.1
2023-01-19T13:35:10.096Z,0.1
2023-01-19T13:40:10.095Z,0.1
2023-01-19T13:45:10.086Z,0.1
2023-01-19T13:50:10.080Z,0.2
2023-01-19T13:55:10.394Z,0.2
2023-01-19T14:00:10.099Z,0.2
2023-01-19T14:05:10.083Z,0.2
2023-01-19T14:10:10.085Z,0.1
2023-01-19T14:15:10.103Z,0.1
2023-01-19T14:20:10.232Z,0.1
2023-01-19T14:25:10.099Z,0.1
2023-01-19T14:30:10.100Z,-0.1
2023-01-19T14:35:10.499Z,-0.1
2023-01-19T14:40:10.112Z,-0.1
2023-01-19T14:45:10.439Z,-0.1
2023-01-19T14:50:10.084Z,-0.1
2023-01-19T14:55:10.319Z,-0.1
2023-01-19T15:00:10.083Z,-0.1
2023-01-19T15:05:10.086Z,-0.1
2023-01-19T15:10:10.089Z,-0.1
2023-01-19T15:15:10.261Z,-0.1
2023-01-19T15:20:10.090Z,-0.1
2023-01-19T15:25:10.283Z,-0.2
2023-01-19T15:30:10.089Z,-0.2
2023-01-19T15:35:10.239Z,-0.2
2023-01-19T15:40:10.091Z,-0.2
2023-01-19T15:45:10.362Z,-0.3
2023-01-19T15:50:10.091Z,-0.3
2023-01-19T15:55:10.395Z,-0.3
2023-01-19T16:00:10.084Z,-0.3
2023-01-19T16:05:10.326Z,-0.3
2023-01-19T16:10:10.322Z,-0.4
2023-01-19T16:15:10.493Z,-0.5
2023-01-19T16:20:11.788Z,-0.5
2023-01-19T16:25:10.082Z,-0.6
2023-01-19T16:30:10.286Z,-0.6
2023-01-19T16:35:10.082Z,-0.7
2023-01-19T16:40:10.258Z,-0.7
2023-01-19T16:45:10.089Z,-0.7
2023-01-19T16:50:10.337Z,-0.7
2023-01-19T16:55:10.086Z,-0.7
2023-01-19T17:00:10.560Z,-0.7
2023-01-19T17:05:10.348Z,-0.8
2023-01-19T17:10:10.398Z,-0.8
2023-01-19T17:15:10.088Z,-0.8
2023-01-19T17:20:10.607Z,-0.9
2023-01-19T17:25:10.095Z,-0.9
2023-01-19T17:30:10.414Z,-0.8
2023-01-19T17:35:10.091Z,-0.8
2023-01-19T17:40:10.349Z,-0.8
2023-01-19T17:45:10.096Z,-0.8
2023-01-19T17:50:10.263Z,-0.8
2023-01-19T17:55:10.091Z,-0.8
2023-01-19T18:00:10.426Z,-0.9
2023-01-19T18:05:10.095Z,-0.9
2023-01-19T18:10:10.082Z,-0.9
2023-01-19T18:15:10.108Z,-0.9
2023-01-19T18:20:10.315Z,-0.9
2023-01-19T18:25:10.110Z,-1
2023-01-19T18:30:10.127Z,-0.9
2023-01-19T18:35:10.107Z,-1
2023-01-19T18:40:10.149Z,-1
2023-01-19T18:45:10.086Z,-1
2023-01-19T18:50:10.094Z,-1
2023-01-19T18:55:10.090Z,-1
2023-01-19T19:00:10.237Z,-1
2023-01-19T19:05:10.117Z,-0.9
2023-01-19T19:10:10.119Z,-0.9
2023-01-19T19:15:10.108Z,-0.8
2023-01-19T19:20:10.082Z,-0.8
2023-01-19T19:25:10.093Z,-0.9
2023-01-19T19:30:10.145Z,-1
2023-01-19T19:35:10.086Z,-0.9
2023-01-19T19:40:10.109Z,-0.9
2023-01-19T19:45:10.091Z,-0.8
2023-01-19T19:50:10.172Z,-0.9
2023-01-19T19:55:10.324Z,-0.9
2023-01-19T20:00:10.201Z,-0.9
2023-01-19T20:05:10.096Z,-0.9
2023-01-19T20:10:10.111Z,-0.9
2023-01-19T20:15:10.112Z,-0.9
2023-01-19T20:20:10.087Z,-1
2023-01-19T20:25:10.102Z,-1.1
2023-01-19T20:30:10.171Z,-1
2023-01-19T20:35:10.279Z,-1
2023-01-19T20:40:10.083Z,-1.1
2023-01-19T20:45:10.350Z,-1.1
2023-01-19T20:50:10.087Z,-1.1
2023-01-19T20:55:10.377Z,-1.2
2023-01-19T21:00:10.086Z,-1.4
2023-01-19T21:05:10.170Z,-1.6
2023-01-19T21:10:10.084Z,-1.8
2023-01-19T21:15:10.334Z,-1.8
2023-01-19T21:20:10.078Z,-1.8
2023-01-19T21:25:10.091Z,-1.8
2023-01-19T21:30:10.083Z,-1.8
2023-01-19T21:35:10.310Z,-1.8
2023-01-19T21:40:10.080Z,-1.8
2023-01-19T21:45:10.109Z,-1.7
2023-01-19T21:50:10.086Z,-1.7
2023-01-19T21:55:10.142Z,-1.9
2023-01-19T22:00:10.083Z,-1.9
2023-01-19T22:05:10.202Z,-1.9
2023-01-19T22:10:10.221Z,-1.8
2023-01-19T22:15:10.093Z,-1.8
2023-01-19T22:20:10.099Z,-1.7
2023-01-19T22:25:10.168Z,-1.6
2023-01-19T22:30:10.092Z,-1.5
2023-01-19T22:35:10.208Z,-1.4
2023-01-19T22:40:10.086Z,-1.4
2023-01-19T22:45:10.083Z,-1.3
2023-01-19T22:50:10.077Z,-1.4
2023-01-19T22:55:10.224Z,-1.4
2023-01-19T23:00:10.083Z,-1.4
2023-01-19T23:05:10.144Z,-1.4
2023-01-19T23:10:10.080Z,-1.4
2023-01-19T23:15:10.134Z,-1.4
2023-01-19T23:20:10.079Z,-1.3
2023-01-19T23:25:10.114Z,-1.2
2023-01-19T23:30:10.082Z,-1.4
2023-01-19T23:35:10.091Z,-1.4
2023-01-19T23:40:10.091Z,-1.4
2023-01-19T23:45:10.080Z,-1.3
2023-01-19T23:50:10.078Z,-1.5
2023-01-19T23:55:10.089Z,-1.6
